Teterboro Airport
KTEB : now visible

Airfield :











YOU CAN JOIN US ON...

 
LOGIN :

Register | Disclaimer

   EN    FR    IT 

 









Legend :    VFR   Marginal VFR   IFR   Intensive IFR   Very Intensive IFR
Visi :
Ceiling :
>= 8 km
>= 3000ft
5 to 8 km
1000 to 3000 ft
1500m to 5 km
500 to 1000 ft
800 to 1500m
200 to 500 ft
< 800m
< 200 ft
Symbols :   Thunderstorms  Fog  Heavy snow  Heavy precipitations  Wind > 20 kt






- Airport Elevation : 9 ft


KTEB - Teterboro

CURRENT METAR :
  • 041051Z 20005KT 10SM BKN100 05/M01 A3005 RMK AO2 SLP176 T00501006

EXPIRED METARs :
  • 040951Z 21003KT 10SM BKN110 04/M01 A3006 RMK AO2 SLP177 T00441011
  • 040851Z 22006KT 10SM FEW120 06/M01 A3009 RMK AO2 SLP189 T00561011 58006

TAF KTEB
Valid from the 04 at 09:00 until the 05 at 12:00 UTC


040833Z 0409/0512 21006KT P6SM BKN100
FM041700 22007KT P6SM -SHRA SCT020 OVC040
FM042100 21006KT P6SM -RA SCT015 OVC030
FM050100 21004KT 5SM -RA BR OVC012
FM050500 VRB03KT 2SM -RA BR OVC008
FM051000 01007KT 3SM -RA BR OVC012
KZNY FIR / North America



MET'MAP, your aeronautical weather chart ! - Copyright ORBIFLY December 2007 - Disclaimer

ORBIFLY MET'MAP TEAM :

Programming & Development : Alexandra Zaïnal
Concept & original design : Baudouin d'Aumeries
Assistance for programming : Marc-Olivier Méhu
Technical & hardware support : Manuel Goepfert

Contact : metmap@orbifly.com




SOURCES & CREDITS :

   NOAA       Earth
Advisory